createdAt,value
2019-03-06T00:01:07.337Z,92.72
2019-03-06T00:03:57.657Z,91.57
2019-03-06T00:06:48.194Z,91.04
2019-03-06T00:09:38.539Z,90.38
2019-03-06T00:12:29.058Z,90.32
2019-03-06T00:15:19.331Z,90.20
2019-03-06T00:18:09.477Z,90.41
2019-03-06T00:20:59.674Z,90.78
2019-03-06T00:23:50.156Z,89.96
2019-03-06T00:26:40.641Z,88.70
2019-03-06T00:29:31.092Z,88.11
2019-03-06T00:32:21.530Z,88.26
2019-03-06T00:35:16.984Z,88.08
2019-03-06T00:38:07.410Z,88.29
2019-03-06T00:41:23.201Z,88.70
2019-03-06T00:44:13.420Z,89.01
2019-03-06T00:47:03.917Z,89.30
2019-03-06T00:49:54.164Z,88.42
2019-03-06T00:52:44.541Z,83.12
2019-03-06T00:55:34.549Z,81.84
2019-03-06T00:58:25.153Z,79.75
2019-03-06T01:01:16.544Z,80.86
2019-03-06T01:04:09.837Z,80.88
2019-03-06T01:07:00.247Z,81.10
2019-03-06T01:09:50.805Z,82.67
2019-03-06T01:12:41.273Z,83.56
2019-03-06T01:15:31.719Z,84.17
2019-03-06T01:18:21.961Z,85.21
2019-03-06T01:21:12.399Z,87.39
2019-03-06T01:24:02.460Z,90.67
2019-03-06T01:26:52.851Z,91.12
2019-03-06T01:29:43.049Z,92.53
2019-03-06T01:32:33.403Z,94.76
2019-03-06T01:35:54.873Z,97.54
2019-03-06T01:39:06.971Z,97.80
2019-03-06T01:42:04.097Z,97.96
2019-03-06T01:44:57.710Z,98.63
2019-03-06T01:47:47.820Z,99.63
2019-03-06T01:50:38.527Z,100.00
2019-03-06T01:53:28.927Z,100.00
2019-03-06T01:56:19.583Z,100.00
2019-03-06T01:59:09.876Z,99.76
2019-03-06T02:02:00.316Z,100.00
2019-03-06T02:04:50.680Z,100.00
2019-03-06T02:07:41.102Z,100.00
2019-03-06T02:10:31.535Z,100.00
2019-03-06T02:13:23.808Z,100.00
2019-03-06T02:16:14.983Z,100.00
2019-03-06T02:19:05.551Z,100.00
2019-03-06T02:21:56.006Z,98.00
2019-03-06T02:24:46.474Z,98.83
2019-03-06T02:27:37.178Z,100.00
2019-03-06T02:30:27.257Z,100.00
2019-03-06T02:33:17.602Z,99.60
2019-03-06T02:36:07.884Z,97.33
2019-03-06T02:38:58.165Z,99.35
2019-03-06T02:41:48.668Z,100.00
2019-03-06T02:44:40.118Z,100.00
2019-03-06T02:47:30.816Z,100.00
2019-03-06T02:50:21.079Z,100.00
2019-03-06T02:53:11.598Z,100.00
2019-03-06T02:56:02.988Z,100.00
2019-03-06T02:59:12.008Z,100.00
2019-03-06T03:02:28.434Z,99.90
2019-03-06T03:05:31.486Z,99.72
2019-03-06T03:08:21.745Z,99.37
2019-03-06T03:11:12.276Z,98.63
2019-03-06T03:14:02.549Z,97.95
2019-03-06T03:16:53.019Z,98.48
2019-03-06T03:19:43.114Z,99.99
2019-03-06T03:22:33.461Z,100.00
2019-03-06T03:25:23.760Z,100.00
2019-03-06T03:28:14.267Z,100.00
2019-03-06T03:31:04.716Z,100.00
2019-03-06T03:33:55.165Z,100.00
2019-03-06T03:36:45.452Z,100.00
2019-03-06T03:39:35.770Z,100.00
2019-03-06T03:42:26.230Z,100.00
2019-03-06T03:45:16.844Z,100.00
2019-03-06T03:48:07.100Z,100.00
2019-03-06T03:50:57.419Z,100.00
2019-03-06T03:53:50.164Z,100.00
2019-03-06T03:56:40.449Z,100.00
2019-03-06T03:59:30.820Z,100.00
2019-03-06T04:02:21.358Z,100.00
2019-03-06T04:05:11.794Z,100.00
2019-03-06T04:08:02.248Z,100.00
2019-03-06T04:10:52.702Z,100.00
2019-03-06T04:13:43.101Z,100.00
2019-03-06T04:16:33.572Z,100.00
2019-03-06T04:19:24.133Z,100.00
2019-03-06T04:22:14.567Z,100.00
2019-03-06T04:25:05.054Z,100.00
2019-03-06T04:27:56.394Z,100.00
2019-03-06T04:30:46.884Z,100.00
2019-03-06T04:33:37.080Z,100.00
2019-03-06T04:36:27.487Z,100.00
2019-03-06T04:39:17.857Z,100.00
2019-03-06T04:42:08.296Z,100.00
2019-03-06T04:44:58.682Z,100.00
2019-03-06T04:47:49.356Z,100.00
2019-03-06T04:50:39.784Z,100.00
2019-03-06T04:53:30.265Z,100.00
2019-03-06T04:56:20.698Z,100.00
2019-03-06T04:59:10.954Z,100.00
2019-03-06T05:02:01.351Z,100.00
2019-03-06T05:04:51.768Z,100.00
2019-03-06T05:07:42.049Z,100.00
2019-03-06T05:10:32.399Z,100.00
2019-03-06T05:13:25.179Z,100.00
2019-03-06T05:16:15.973Z,100.00
2019-03-06T05:19:06.842Z,100.00
2019-03-06T05:21:57.187Z,100.00
2019-03-06T05:24:47.711Z,98.98
2019-03-06T05:27:38.416Z,91.16
2019-03-06T05:30:29.249Z,84.39
2019-03-06T05:33:19.552Z,78.86
2019-03-06T05:36:50.692Z,79.74
2019-03-06T05:39:41.218Z,87.33
2019-03-06T05:42:31.652Z,85.20
2019-03-06T05:45:22.124Z,79.17
2019-03-06T05:48:12.645Z,76.89
2019-03-06T05:51:03.154Z,76.64
2019-03-06T05:53:53.564Z,75.21
2019-03-06T05:56:43.667Z,75.85
2019-03-06T05:59:33.646Z,74.67
2019-03-06T06:02:24.054Z,72.01
2019-03-06T06:05:16.468Z,69.92
2019-03-06T06:08:08.532Z,54.83
2019-03-06T06:10:59.834Z,54.83
2019-03-06T06:13:50.348Z,51.23
2019-03-06T06:16:45.626Z,60.63
2019-03-06T06:19:36.302Z,57.74
2019-03-06T06:22:48.607Z,53.90
2019-03-06T06:25:38.743Z,54.99
2019-03-06T06:28:29.058Z,58.17
2019-03-06T06:31:19.515Z,57.44
2019-03-06T06:34:09.926Z,53.38
2019-03-06T06:37:00.376Z,59.99
2019-03-06T06:39:50.769Z,63.57
2019-03-06T06:42:41.146Z,60.40
2019-03-06T06:45:32.420Z,64.16
2019-03-06T06:48:24.048Z,61.90
2019-03-06T06:51:53.024Z,60.78
2019-03-06T06:55:17.697Z,61.42
2019-03-06T06:58:31.615Z,57.36
2019-03-06T07:02:03.219Z,59.27
2019-03-06T07:05:28.015Z,56.49
2019-03-06T07:08:40.663Z,52.79
2019-03-06T07:11:48.981Z,45.43
2019-03-06T07:14:59.321Z,43.83
2019-03-06T07:18:08.658Z,37.26
2019-03-06T07:21:18.230Z,33.02
2019-03-06T07:24:34.063Z,30.98
2019-03-06T07:27:50.676Z,30.66
2019-03-06T07:30:59.081Z,32.00
2019-03-06T07:34:08.871Z,30.40
2019-03-06T07:37:12.163Z,33.70
2019-03-06T07:40:08.716Z,30.00
2019-03-06T07:43:24.256Z,29.74
2019-03-06T07:46:35.505Z,31.66
2019-03-06T07:49:33.957Z,28.44
2019-03-06T07:52:53.501Z,29.28
2019-03-06T07:55:55.424Z,26.84
2019-03-06T07:58:54.400Z,29.45
2019-03-06T08:01:55.061Z,28.56
2019-03-06T08:04:53.040Z,26.85
2019-03-06T08:07:46.535Z,29.90
2019-03-06T08:10:38.762Z,31.00
2019-03-06T08:13:37.963Z,32.10
2019-03-06T08:16:53.046Z,27.69
2019-03-06T08:20:08.939Z,26.55
2019-03-06T08:23:13.084Z,26.09
2019-03-06T08:26:03.753Z,24.56
2019-03-06T08:28:57.424Z,26.69
2019-03-06T08:31:54.211Z,26.60
2019-03-06T08:34:45.378Z,29.03
2019-03-06T08:37:37.357Z,29.92
2019-03-06T08:40:28.118Z,32.20
2019-03-06T08:43:18.998Z,32.39
2019-03-06T08:46:37.490Z,34.45
2019-03-06T08:49:37.675Z,35.99
2019-03-06T08:52:41.358Z,40.40
2019-03-06T08:55:41.410Z,41.04
2019-03-06T08:58:49.757Z,43.28
2019-03-06T09:02:05.304Z,46.32
2019-03-06T09:05:03.426Z,47.28
2019-03-06T09:08:18.743Z,51.42
2019-03-06T09:11:17.276Z,55.81
2019-03-06T09:14:26.209Z,58.62
2019-03-06T09:17:35.028Z,62.82
2019-03-06T09:20:53.518Z,57.78
2019-03-06T09:23:58.386Z,57.91
2019-03-06T09:26:53.935Z,60.66
2019-03-06T09:29:54.652Z,59.85
2019-03-06T09:32:51.765Z,54.45
2019-03-06T09:36:04.081Z,54.18
2019-03-06T09:39:13.549Z,53.11
2019-03-06T09:42:25.813Z,52.39
2019-03-06T09:45:27.663Z,54.01
2019-03-06T09:48:35.714Z,53.89
2019-03-06T09:51:35.579Z,56.45
2019-03-06T09:54:55.103Z,58.30
2019-03-06T09:57:59.124Z,61.06
2019-03-06T10:01:07.514Z,53.94
2019-03-06T10:04:29.075Z,53.94
2019-03-06T10:07:50.847Z,55.82
2019-03-06T10:10:57.609Z,62.79
2019-03-06T10:13:48.248Z,60.82
2019-03-06T10:16:49.964Z,62.37
2019-03-06T10:19:46.713Z,61.13
2019-03-06T10:22:36.993Z,65.99
2019-03-06T10:25:30.621Z,66.99
2019-03-06T10:28:27.534Z,64.58
2019-03-06T10:31:10.825Z,66.79
2019-03-06T10:34:01.155Z,60.35
2019-03-06T10:36:52.612Z,65.88
2019-03-06T10:39:42.655Z,58.93
2019-03-06T10:42:50.743Z,58.73
2019-03-06T10:45:41.953Z,61.06
2019-03-06T10:48:32.445Z,60.84
2019-03-06T10:51:22.466Z,62.70
2019-03-06T10:54:13.228Z,64.79
2019-03-06T10:57:03.416Z,66.62
2019-03-06T10:59:54.213Z,68.41
2019-03-06T11:02:44.461Z,67.08
2019-03-06T11:05:35.832Z,67.62
2019-03-06T11:08:26.050Z,68.68
2019-03-06T11:11:16.233Z,66.42
2019-03-06T11:14:07.345Z,66.17
2019-03-06T11:16:57.711Z,64.79
2019-03-06T11:19:48.308Z,63.72
2019-03-06T11:22:38.468Z,63.47
2019-03-06T11:25:29.422Z,62.87
2019-03-06T11:28:20.212Z,61.21
2019-03-06T11:31:10.594Z,61.27
2019-03-06T11:34:01.074Z,64.46
2019-03-06T11:36:51.516Z,61.24
2019-03-06T11:39:41.932Z,62.57
2019-03-06T11:42:32.155Z,61.55
2019-03-06T11:45:22.990Z,62.13
2019-03-06T11:48:13.497Z,60.00
2019-03-06T11:51:03.772Z,61.79
2019-03-06T11:53:53.982Z,60.64
2019-03-06T11:56:44.356Z,60.48
2019-03-06T11:59:34.692Z,52.13
2019-03-06T12:02:26.313Z,52.13
2019-03-06T12:05:16.900Z,48.08
2019-03-06T12:08:09.720Z,49.26
2019-03-06T12:11:00.276Z,44.90
2019-03-06T12:13:50.611Z,41.23
2019-03-06T12:16:41.976Z,41.53
2019-03-06T12:19:32.424Z,41.74
2019-03-06T12:22:22.495Z,41.27
2019-03-06T12:25:12.624Z,41.45
2019-03-06T12:28:03.013Z,41.72
2019-03-06T12:30:53.411Z,41.71
2019-03-06T12:33:43.451Z,41.90
2019-03-06T12:36:33.953Z,40.33
2019-03-06T12:39:25.797Z,40.38
2019-03-06T12:42:16.199Z,39.41
2019-03-06T12:45:12.218Z,39.14
2019-03-06T12:48:02.922Z,40.15
2019-03-06T12:50:56.212Z,40.56
2019-03-06T12:53:45.039Z,40.22
2019-03-06T12:56:35.316Z,40.78
2019-03-06T12:59:25.667Z,43.01
2019-03-06T13:02:16.143Z,41.62
2019-03-06T13:05:06.809Z,43.18
2019-03-06T13:07:57.101Z,42.38
2019-03-06T13:10:47.340Z,39.39
2019-03-06T13:13:38.028Z,41.38
2019-03-06T13:16:28.325Z,41.44
2019-03-06T13:19:18.705Z,40.56
2019-03-06T13:22:11.409Z,39.93
2019-03-06T13:25:00.987Z,39.51
2019-03-06T13:27:54.896Z,39.56
2019-03-06T13:30:43.429Z,41.20
2019-03-06T13:33:45.088Z,40.88
2019-03-06T13:36:35.028Z,40.34
2019-03-06T13:39:25.342Z,39.43
2019-03-06T13:42:17.827Z,39.85
2019-03-06T13:45:08.018Z,40.07
2019-03-06T13:47:58.327Z,40.46
2019-03-06T13:50:48.907Z,39.95
2019-03-06T13:53:39.075Z,39.68
2019-03-06T13:56:29.515Z,37.58
2019-03-06T13:59:19.644Z,38.01
2019-03-06T14:02:10.144Z,38.05
2019-03-06T14:05:02.641Z,38.49
2019-03-06T14:07:56.563Z,38.85
2019-03-06T14:10:44.763Z,38.84
2019-03-06T14:13:34.958Z,39.69
2019-03-06T14:16:25.190Z,39.43
2019-03-06T14:19:15.410Z,39.21
2019-03-06T14:22:05.632Z,39.29
2019-03-06T14:24:55.784Z,39.29
2019-03-06T14:27:45.753Z,39.64
2019-03-06T14:30:36.467Z,39.38
2019-03-06T14:33:27.060Z,37.32
2019-03-06T14:36:21.566Z,37.09
2019-03-06T14:39:31.901Z,37.02
2019-03-06T14:42:22.117Z,36.96
2019-03-06T14:45:13.227Z,37.39
2019-03-06T14:48:03.461Z,36.50
2019-03-06T14:50:53.669Z,37.76
2019-03-06T14:53:44.372Z,37.46
2019-03-06T14:56:34.803Z,37.97
2019-03-06T14:59:25.172Z,38.42
2019-03-06T15:02:15.149Z,37.64
2019-03-06T15:05:05.400Z,39.24
2019-03-06T15:07:55.735Z,41.19
2019-03-06T15:10:46.015Z,41.23
2019-03-06T15:13:36.128Z,41.23
2019-03-06T15:16:26.198Z,42.01
2019-03-06T15:19:16.668Z,42.49
2019-03-06T15:22:07.173Z,41.23
2019-03-06T15:24:57.553Z,42.04
2019-03-06T15:27:47.870Z,41.79
2019-03-06T15:30:38.093Z,41.25
2019-03-06T15:33:28.595Z,40.43
2019-03-06T15:36:18.956Z,39.31
2019-03-06T15:39:31.673Z,38.33
2019-03-06T15:42:24.608Z,37.52
2019-03-06T15:45:15.329Z,37.25
2019-03-06T15:48:05.798Z,37.37
2019-03-06T15:50:57.139Z,37.49
2019-03-06T15:53:47.219Z,37.44
2019-03-06T15:56:37.530Z,37.57
2019-03-06T15:59:27.705Z,37.69
2019-03-06T16:02:17.879Z,36.79
2019-03-06T16:05:09.056Z,36.16
2019-03-06T16:07:59.403Z,35.51
2019-03-06T16:10:49.602Z,34.88
2019-03-06T16:13:40.213Z,34.42
2019-03-06T16:16:30.348Z,34.75
2019-03-06T16:19:20.816Z,34.87
2019-03-06T16:22:11.210Z,34.17
2019-03-06T16:25:02.101Z,34.11
2019-03-06T16:27:52.205Z,33.87
2019-03-06T16:30:42.999Z,33.89
2019-03-06T16:33:33.094Z,33.90
2019-03-06T16:36:23.196Z,33.47
2019-03-06T16:39:13.426Z,33.20
2019-03-06T16:42:04.672Z,33.27
2019-03-06T16:44:55.128Z,43.75
2019-03-06T16:47:45.926Z,48.98
2019-03-06T16:50:35.937Z,72.28
2019-03-06T16:53:26.280Z,83.82
2019-03-06T16:56:16.585Z,85.03
2019-03-06T16:59:07.344Z,85.44
2019-03-06T17:01:57.482Z,86.28
2019-03-06T17:04:48.245Z,86.34
2019-03-06T17:07:38.338Z,86.13
2019-03-06T17:10:28.793Z,85.46
2019-03-06T17:13:19.060Z,86.77
2019-03-06T17:16:09.861Z,80.84
2019-03-06T17:19:00.077Z,54.27
2019-03-06T17:21:50.170Z,46.22
2019-03-06T17:24:40.398Z,43.90
2019-03-06T17:27:30.445Z,67.95
2019-03-06T17:30:22.283Z,77.08
2019-03-06T17:33:12.575Z,75.87
2019-03-06T17:36:02.867Z,70.05
2019-03-06T17:38:53.510Z,66.91
2019-03-06T17:41:43.876Z,49.57
2019-03-06T17:44:34.382Z,46.59
2019-03-06T17:47:24.784Z,44.88
2019-03-06T17:50:15.272Z,41.58
2019-03-06T17:53:05.603Z,43.13
2019-03-06T17:55:55.830Z,41.02
2019-03-06T17:58:48.630Z,40.38
2019-03-06T18:01:39.048Z,40.30
2019-03-06T18:04:30.576Z,40.32
2019-03-06T18:07:20.802Z,40.86
2019-03-06T18:10:12.432Z,40.96
2019-03-06T18:13:02.605Z,41.08
2019-03-06T18:15:52.774Z,41.28
2019-03-06T18:18:43.153Z,41.42
2019-03-06T18:21:33.663Z,45.96
2019-03-06T18:24:24.190Z,42.45
2019-03-06T18:27:14.436Z,41.90
2019-03-06T18:30:05.210Z,42.82
2019-03-06T18:32:56.952Z,43.68
2019-03-06T18:35:47.258Z,44.44
2019-03-06T18:38:37.587Z,46.21
2019-03-06T18:41:27.705Z,47.99
2019-03-06T18:44:17.788Z,49.18
2019-03-06T18:47:08.376Z,49.25
2019-03-06T18:50:00.658Z,49.67
2019-03-06T18:52:51.173Z,49.78
2019-03-06T18:55:41.427Z,49.15
2019-03-06T18:58:31.661Z,49.16
2019-03-06T19:01:22.164Z,49.71
2019-03-06T19:04:12.430Z,48.89
2019-03-06T19:07:02.697Z,48.99
2019-03-06T19:09:53.089Z,49.15
2019-03-06T19:12:43.012Z,48.95
2019-03-06T19:15:33.480Z,49.01
2019-03-06T19:18:23.739Z,48.86
2019-03-06T19:21:14.429Z,49.51
2019-03-06T19:24:04.575Z,50.86
2019-03-06T19:26:55.777Z,51.65
2019-03-06T19:29:46.298Z,52.31
2019-03-06T19:32:36.892Z,52.10
2019-03-06T19:35:27.268Z,52.28
2019-03-06T19:38:17.348Z,51.84
2019-03-06T19:41:07.617Z,51.98
2019-03-06T19:43:57.971Z,52.58
2019-03-06T19:46:48.257Z,52.88
2019-03-06T19:49:38.613Z,52.83
2019-03-06T19:52:28.847Z,53.24
2019-03-06T19:55:19.434Z,54.03
2019-03-06T19:58:09.849Z,54.70
2019-03-06T20:01:00.508Z,55.09
2019-03-06T20:03:50.858Z,55.42
2019-03-06T20:06:41.133Z,55.51
2019-03-06T20:09:31.659Z,56.08
2019-03-06T20:12:21.907Z,57.01
2019-03-06T20:15:12.244Z,59.33
2019-03-06T20:18:02.369Z,60.42
2019-03-06T20:20:52.697Z,64.30
2019-03-06T20:23:43.116Z,65.79
2019-03-06T20:26:33.480Z,66.91
2019-03-06T20:29:23.988Z,67.31
2019-03-06T20:32:14.416Z,68.14
2019-03-06T20:35:05.220Z,67.37
2019-03-06T20:37:55.421Z,68.10
2019-03-06T20:40:45.524Z,68.68
2019-03-06T20:43:35.784Z,71.10
2019-03-06T20:46:26.070Z,74.25
2019-03-06T20:49:16.362Z,73.70
2019-03-06T20:52:06.960Z,76.79
2019-03-06T20:54:57.119Z,82.52
2019-03-06T20:57:47.720Z,82.26
2019-03-06T21:00:37.942Z,79.66
2019-03-06T21:03:28.429Z,76.13
2019-03-06T21:06:18.628Z,78.12
2019-03-06T21:09:08.841Z,81.59
2019-03-06T21:11:59.667Z,87.46
2019-03-06T21:14:49.717Z,89.02
2019-03-06T21:17:40.081Z,89.65
2019-03-06T21:20:30.479Z,91.53
2019-03-06T21:23:20.597Z,92.53
2019-03-06T21:26:11.093Z,91.10
2019-03-06T21:29:01.333Z,82.54
2019-03-06T21:31:51.629Z,90.40
2019-03-06T21:34:41.969Z,92.00
2019-03-06T21:37:32.416Z,92.61
2019-03-06T21:40:22.848Z,93.34
2019-03-06T21:43:13.228Z,93.42
2019-03-06T21:46:03.529Z,91.04
2019-03-06T21:48:53.773Z,87.48
2019-03-06T21:51:44.056Z,87.88
2019-03-06T21:54:34.431Z,85.51
2019-03-06T21:57:24.809Z,83.73
2019-03-06T22:00:19.866Z,80.66
2019-03-06T22:03:10.091Z,79.09
2019-03-06T22:06:00.562Z,74.52
2019-03-06T22:08:50.932Z,74.91
2019-03-06T22:11:41.340Z,76.15
2019-03-06T22:14:31.630Z,78.28
2019-03-06T22:17:21.997Z,77.64
2019-03-06T22:20:12.375Z,78.64
2019-03-06T22:23:02.443Z,80.14
2019-03-06T22:25:52.632Z,80.53
2019-03-06T22:28:42.728Z,81.65
2019-03-06T22:31:33.129Z,81.32
2019-03-06T22:34:23.767Z,80.45
2019-03-06T22:37:14.484Z,80.83
2019-03-06T22:40:05.002Z,82.65
2019-03-06T22:42:56.279Z,84.05
2019-03-06T22:45:46.591Z,84.49
2019-03-06T22:48:37.151Z,85.12
2019-03-06T22:51:27.206Z,86.05
2019-03-06T22:54:17.749Z,86.11
2019-03-06T22:57:08.012Z,87.06
2019-03-06T22:59:58.386Z,88.23
2019-03-06T23:02:48.970Z,88.66
2019-03-06T23:05:39.154Z,91.65
2019-03-06T23:08:29.427Z,93.11
2019-03-06T23:11:19.512Z,92.93
2019-03-06T23:14:09.864Z,92.97
2019-03-06T23:16:59.926Z,93.47
2019-03-06T23:19:52.554Z,92.86
2019-03-06T23:22:42.308Z,92.55
2019-03-06T23:25:32.805Z,94.23
2019-03-06T23:28:23.148Z,95.24
2019-03-06T23:31:13.400Z,95.32
2019-03-06T23:34:03.435Z,94.90
2019-03-06T23:36:53.836Z,94.57
2019-03-06T23:39:43.996Z,95.94
2019-03-06T23:42:34.399Z,96.88
2019-03-06T23:45:24.491Z,95.93
2019-03-06T23:48:14.899Z,94.15
2019-03-06T23:51:12.202Z,94.15
2019-03-06T23:54:04.555Z,94.11
2019-03-06T23:56:54.953Z,94.00
2019-03-06T23:59:45.234Z,93.43
